Wiley Post Will Rogers Memorial Airport
PABR : rendu visible

Aérodrome :











RETROUVEZ-NOUS SUR...

 
LOGIN :

S'inscrire | Disclaimer

   EN    FR    IT 

 









Légende :    VFR   VFR Marginal   IFR   IFR Intensif   IFR Très Intensif
Visi : 
Plafond : 
>= 8 km
>= 3000ft
5 à 8 km
1000 à 3000 ft
1500m à 5 km
500 à 1000 ft
800 à 1500m
200 à 500 ft
< 800m
< 200 ft
Symboles :   Orages  Brouillard  Fortes neiges  Fortes précipitations  Vent > 20 kt






- Altitude de l'aérodrome : 44 ft
- Code IATA : BRW


PABR - Wiley Post Will Rogers Memorial

DERNIER METAR :
  • 061153Z AUTO 10014KT 1 1/4SM -SN BR OVC005 M01/M02 A3007 RMK AO2 SNB41 SLP182 P0000 60000 I1000 I6004 T10061017 11006 21011 55001 TSNO

METARs EXPIRÉS :
  • 061115Z AUTO 10015KT 2SM BR OVC003 M01/M02 A3006 RMK AO2 T10061017 TSNO
  • 061106Z AUTO 10016KT 4SM BR OVC003 M01/M02 A3006 RMK AO2 T10061017 TSNO
  • 061053Z AUTO 10015KT 2 1/2SM BR OVC004 M01/M02 A3006 RMK AO2 SLP181 I1000 T10061017 TSNO
  • 060953Z AUTO 11017KT 3SM BR OVC003 M01/M02 A3007 RMK AO2 SLP182 I1001 T10061017 TSNO
  • 060925Z AUTO 10016KT 1 1/2SM R07/5000VP6000FT BR OVC003 M01/M02 A3007 RMK AO2 I1000 T10061017 TSNO

TAF PABR
Valide du 06 à 12h jusqu'au 07 à 12h UTC


061130Z 0612/0712 10015KT 2SM BR OVC003
FM062200 09013KT 4SM BR OVC007
FIR PAZA / Amérique du Nord



MET'MAP, la Météo Aéronautique d'un coup d'oeil ! - Copyright ORBIFLY Décembre 2007 - Disclaimer

ORBIFLY MET'MAP TEAM :

Programmation & Développement : Alexandra Zaïnal
Sur une idée originale de : Baudouin d'Aumeries
Assistance à la programmation : Marc-Olivier Méhu
Soutien technique & logistique : Manuel Goepfert

Contact : metmap@orbifly.com




SOURCES & CREDITS :

   NOAA       Earth
Advisory